Flinterborg — PHPH — position and weather

sailwx.info

Track history (hours):
 
Tides and Currents Weather Stations Pressure Air Temp Water Temp Dewpoint Dewpoint Depression Visibility Wind Speed Wind Dir Waves Ship Positions

Flinterborg

Last reported at 2016-Jun-27 13:05 UTC. Time now 2016-Jun-27 20:29 UTC.
Position N 39°33' W 009°49'.

Length 111 m; draft 5.7 m.

Type: Ship. MMSI: 245433000.

Date/timePositionNaut miles runAvg speedWind from/ knotsBaromVisibWave heightAir tempDewpointWater temp
2016-Jun-27 13:05N 39°33' W 009°49'5 9.1
2016-Jun-27 12:33N 39°28' W 009°49'9 9.4
2016-Jun-27 11:33N 39°18' W 009°49'10 9.5
2016-Jun-27 10:33N 39°09' W 009°49'9 9.4
2016-Jun-27 09:33N 38°59' W 009°50'10 9.8
2016-Jun-27 08:33N 38°50' W 009°50'10 9.6
2016-Jun-27 07:34N 38°40' W 009°49'10 9.8
2016-Jun-27 06:33N 38°30' W 009°46'10 9.8
2016-Jun-27 05:33N 38°21' W 009°44'10 9.8
2016-Jun-27 04:33N 38°11' W 009°41'1010.0
2016-Jun-27 03:33N 38°01' W 009°38'1010.2
2016-Jun-27 02:33N 37°51' W 009°36'1010.1
2016-Jun-27 01:33N 37°41' W 009°33'10 9.8
2016-Jun-27 00:32N 37°32' W 009°30'1010.1
2016-Jun-26 23:33N 37°22' W 009°27'1010.4
2016-Jun-26 22:33N 37°12' W 009°24'1010.4
2016-Jun-26 21:33N 37°02' W 009°21'1010.2
2016-Jun-26 20:33N 36°53' W 009°16'1110.6
2016-Jun-26 19:33N 36°45' W 009°07'1110.9
2016-Jun-26 18:33N 36°42' W 008°53'2311.1
2016-Jun-26 16:30N 36°35' W 008°27'14611.2
2016-Jun-26 03:33N 35°59' W 005°32'9 8.9
2016-Jun-26 02:33N 36°01' W 005°21'  
2016-Jun-22 04:33N 35°58' W 005°13'1312.8
2016-Jun-22 03:33N 35°57' W 005°29'82 8.2
2016-Jun-21 17:33N 36°50' W 006°47'1211.7
2016-Jun-21 16:33N 37°01' W 006°49'  
2016-Jun-19 04:33N 36°01' W 005°29'9 8.8
2016-Jun-19 03:33N 36°08' W 005°23'1 1.3
2016-Jun-19 02:27N 36°09' W 005°22'0 0.0
2016-Jun-19 01:27N 36°09' W 005°22'0 0.0
2016-Jun-19 00:33N 36°09' W 005°22'0 0.0
2016-Jun-18 23:32N 36°09' W 005°22'0 0.0
2016-Jun-18 22:20N 36°09' W 005°22'2 2.1
2016-Jun-18 21:33N 36°07' W 005°22'5 5.0
2016-Jun-18 20:33N 36°05' W 005°16'  
Track history (hours):
 
Tides and Currents Weather Stations Pressure Air Temp Water Temp Dewpoint Dewpoint Depression Visibility Wind Speed Wind Dir Waves Ship Positions

Flinterborg

Last reported at 2016-Jun-27 13:05 UTC. Time now 2016-Jun-27 20:29 UTC.
Position N 39°33' W 009°49'.

Length 111 m; draft 5.7 m.

Type: Ship. MMSI: 245433000.

Date/timePositionNaut miles runAvg speedWind from/ knotsBaromVisibWave heightAir tempDewpointWater temp
2016-Jun-27 13:05N 39°33' W 009°49'5 9.1
2016-Jun-27 12:33N 39°28' W 009°49'9 9.4
2016-Jun-27 11:33N 39°18' W 009°49'10 9.5
2016-Jun-27 10:33N 39°09' W 009°49'9 9.4
2016-Jun-27 09:33N 38°59' W 009°50'10 9.8
2016-Jun-27 08:33N 38°50' W 009°50'10 9.6
2016-Jun-27 07:34N 38°40' W 009°49'10 9.8
2016-Jun-27 06:33N 38°30' W 009°46'10 9.8
2016-Jun-27 05:33N 38°21' W 009°44'10 9.8
2016-Jun-27 04:33N 38°11' W 009°41'1010.0
2016-Jun-27 03:33N 38°01' W 009°38'1010.2
2016-Jun-27 02:33N 37°51' W 009°36'1010.1
2016-Jun-27 01:33N 37°41' W 009°33'10 9.8
2016-Jun-27 00:32N 37°32' W 009°30'1010.1
2016-Jun-26 23:33N 37°22' W 009°27'1010.4
2016-Jun-26 22:33N 37°12' W 009°24'1010.4
2016-Jun-26 21:33N 37°02' W 009°21'1010.2
2016-Jun-26 20:33N 36°53' W 009°16'1110.6
2016-Jun-26 19:33N 36°45' W 009°07'1110.9
2016-Jun-26 18:33N 36°42' W 008°53'2311.1
2016-Jun-26 16:30N 36°35' W 008°27'14611.2
2016-Jun-26 03:33N 35°59' W 005°32'9 8.9
2016-Jun-26 02:33N 36°01' W 005°21'  
2016-Jun-22 04:33N 35°58' W 005°13'1312.8
2016-Jun-22 03:33N 35°57' W 005°29'82 8.2
2016-Jun-21 17:33N 36°50' W 006°47'1211.7
2016-Jun-21 16:33N 37°01' W 006°49'  
2016-Jun-19 04:33N 36°01' W 005°29'9 8.8
2016-Jun-19 03:33N 36°08' W 005°23'1 1.3
2016-Jun-19 02:27N 36°09' W 005°22'0 0.0
2016-Jun-19 01:27N 36°09' W 005°22'0 0.0
2016-Jun-19 00:33N 36°09' W 005°22'0 0.0
2016-Jun-18 23:32N 36°09' W 005°22'0 0.0
2016-Jun-18 22:20N 36°09' W 005°22'2 2.1
2016-Jun-18 21:33N 36°07' W 005°22'5 5.0
2016-Jun-18 20:33N 36°05' W 005°16'  

Dump ship's entire track history